createdAt,value
2022-08-05T00:01:20.543Z,2.33
2022-08-05T00:04:13.912Z,2.60
2022-08-05T00:06:59.723Z,2.53
2022-08-05T00:09:45.695Z,2.65
2022-08-05T00:12:31.354Z,2.20
2022-08-05T00:15:57.674Z,2.40
2022-08-05T00:18:22.897Z,2.38
2022-08-05T00:21:08.836Z,2.42
2022-08-05T00:24:10.756Z,2.63
2022-08-05T00:26:56.978Z,2.75
2022-08-05T00:29:44.682Z,2.40
2022-08-05T00:32:30.223Z,2.65
2022-08-05T00:35:16.104Z,2.13
2022-08-05T00:38:05.884Z,2.85
2022-08-05T00:40:57.462Z,3.15
2022-08-05T00:43:47.012Z,2.55
2022-08-05T00:46:42.815Z,2.53
2022-08-05T00:49:32.503Z,2.65
2022-08-05T00:52:28.787Z,2.65
2022-08-05T00:55:14.969Z,2.45
2022-08-05T00:58:01.221Z,2.50
2022-08-05T01:00:47.784Z,2.95
2022-08-05T01:03:35.719Z,2.70
2022-08-05T01:06:21.423Z,2.80
2022-08-05T01:09:14.689Z,2.20
2022-08-05T01:12:18.170Z,1.90
2022-08-05T01:15:35.388Z,2.80
2022-08-05T01:18:19.618Z,2.83
2022-08-05T01:21:38.325Z,2.35
2022-08-05T01:24:51.945Z,2.78
2022-08-05T01:27:50.520Z,2.53
2022-08-05T01:30:55.178Z,3.00
2022-08-05T01:33:53.627Z,2.60
2022-08-05T01:36:47.841Z,2.85
2022-08-05T01:39:46.750Z,2.47
2022-08-05T01:42:36.562Z,3.17
2022-08-05T01:45:24.777Z,2.78
2022-08-05T01:48:12.386Z,2.65
2022-08-05T01:51:00.707Z,2.63
2022-08-05T01:54:00.406Z,2.80
2022-08-05T01:58:11.161Z,3.58
2022-08-05T01:59:59.247Z,3.10
2022-08-05T02:02:54.874Z,2.95
2022-08-05T02:05:43.305Z,3.97
2022-08-05T02:08:31.234Z,3.38
2022-08-05T02:11:23.558Z,3.00
2022-08-05T02:14:14.611Z,3.50
2022-08-05T02:17:08.516Z,3.50
2022-08-05T02:20:07.325Z,2.97
2022-08-05T02:23:08.816Z,3.40
2022-08-05T02:25:57.280Z,4.15
2022-08-05T02:28:47.774Z,4.03
2022-08-05T02:31:35.622Z,3.30
2022-08-05T02:34:22.749Z,4.10
2022-08-05T02:37:10.037Z,3.33
2022-08-05T02:39:55.905Z,3.95
2022-08-05T02:42:42.760Z,4.18
2022-08-05T02:45:52.912Z,4.63
2022-08-05T02:48:39.755Z,4.45
2022-08-05T02:52:02.824Z,5.70
2022-08-05T02:54:37.714Z,5.40
2022-08-05T02:58:11.988Z,4.78
2022-08-05T03:00:36.898Z,5.10
2022-08-05T03:03:26.090Z,5.05
2022-08-05T03:06:53.647Z,5.93
2022-08-05T03:09:18.058Z,6.07
2022-08-05T03:12:32.797Z,6.43
2022-08-05T03:15:18.341Z,6.38
2022-08-05T03:18:04.077Z,6.20
2022-08-05T03:20:53.464Z,6.25
2022-08-05T03:23:42.828Z,6.47
2022-08-05T03:26:32.707Z,6.43
2022-08-05T03:29:18.242Z,5.95
2022-08-05T03:32:05.676Z,5.65
2022-08-05T03:34:54.692Z,5.65
2022-08-05T03:37:46.410Z,5.47
2022-08-05T03:40:32.909Z,4.30
2022-08-05T03:44:08.958Z,6.47
2022-08-05T03:46:29.534Z,6.03
2022-08-05T03:49:16.360Z,7.22
2022-08-05T03:52:37.397Z,4.95
2022-08-05T03:56:01.099Z,6.25
2022-08-05T03:58:33.364Z,7.97
2022-08-05T04:01:22.601Z,7.43
2022-08-05T04:04:10.997Z,7.40
2022-08-05T04:06:58.048Z,7.07
2022-08-05T04:09:53.769Z,6.95
2022-08-05T04:15:24.460Z,8.55
2022-08-05T04:18:12.712Z,8.65
2022-08-05T04:21:07.599Z,7.75
2022-08-05T04:24:06.460Z,8.75
2022-08-05T04:26:54.421Z,8.60
2022-08-05T04:29:40.248Z,8.82
2022-08-05T04:32:30.709Z,8.55
2022-08-05T04:35:19.382Z,9.38
2022-08-05T04:38:06.635Z,8.23
2022-08-05T04:40:52.370Z,9.30
2022-08-05T04:43:40.693Z,10.05
2022-08-05T04:46:33.927Z,9.50
2022-08-05T04:49:19.329Z,9.50
2022-08-05T04:52:10.310Z,9.57
2022-08-05T04:54:58.855Z,9.60
2022-08-05T04:57:47.899Z,10.55
2022-08-05T05:00:38.522Z,4.95
2022-08-05T05:03:23.963Z,3.58
2022-08-05T05:06:38.944Z,3.47
2022-08-05T05:09:19.019Z,3.40
2022-08-05T05:12:05.245Z,8.52
2022-08-05T05:14:51.892Z,9.05
2022-08-05T05:17:56.645Z,8.80
2022-08-05T05:20:46.082Z,4.40
2022-08-05T05:23:39.080Z,3.92
2022-08-05T05:26:37.419Z,9.23
2022-08-05T05:29:25.225Z,8.25
2022-08-05T05:32:30.845Z,9.98
2022-08-05T05:35:19.942Z,8.70
2022-08-05T05:38:09.086Z,9.15
2022-08-05T05:40:57.655Z,9.65
2022-08-05T05:43:58.293Z,8.73
2022-08-05T05:46:45.791Z,9.15
2022-08-05T05:49:33.460Z,10.45
2022-08-05T05:52:28.341Z,8.60
2022-08-05T05:55:18.786Z,9.07
2022-08-05T05:58:04.463Z,9.73
2022-08-05T06:00:50.523Z,8.90
2022-08-05T06:03:53.577Z,8.00
2022-08-05T06:06:46.684Z,8.23
2022-08-05T06:09:50.206Z,7.20
2022-08-05T06:12:42.316Z,7.80
2022-08-05T06:16:29.649Z,8.63
2022-08-05T06:18:33.966Z,8.18
2022-08-05T06:21:25.207Z,6.88
2022-08-05T06:24:25.846Z,6.53
2022-08-05T06:27:17.194Z,5.88
2022-08-05T06:30:21.305Z,7.03
2022-08-05T06:33:09.780Z,6.82
2022-08-05T06:36:07.113Z,6.07
2022-08-05T06:38:55.967Z,5.95
2022-08-05T06:41:41.882Z,5.50
2022-08-05T06:44:31.631Z,5.80
2022-08-05T06:47:30.293Z,5.15
2022-08-05T06:50:23.032Z,5.60
2022-08-05T06:53:11.547Z,5.93
2022-08-05T06:56:25.879Z,4.93
2022-08-05T06:59:14.501Z,5.03
2022-08-05T07:02:00.864Z,4.57
2022-08-05T07:04:46.863Z,4.43
2022-08-05T07:07:43.127Z,5.13
2022-08-05T07:10:32.539Z,4.95
2022-08-05T07:13:59.171Z,4.82
2022-08-05T07:17:59.397Z,5.28
2022-08-05T07:20:32.421Z,4.93
2022-08-05T07:23:04.436Z,4.65
2022-08-05T07:25:55.316Z,4.47
2022-08-05T07:28:42.341Z,4.07
2022-08-05T07:31:41.123Z,4.72
2022-08-05T07:34:33.831Z,5.10
2022-08-05T07:37:19.491Z,5.88
2022-08-05T07:40:32.557Z,5.40
2022-08-05T07:43:20.182Z,5.80
2022-08-05T07:46:06.565Z,6.15
2022-08-05T07:49:10.473Z,7.78
2022-08-05T07:51:56.252Z,8.50
2022-08-05T07:54:49.057Z,7.55
2022-08-05T07:57:41.885Z,7.47
2022-08-05T08:00:37.887Z,7.25
2022-08-05T08:03:24.517Z,8.07
2022-08-05T08:06:31.015Z,7.20
2022-08-05T08:09:16.400Z,8.10
2022-08-05T08:12:16.494Z,7.82
2022-08-05T08:15:15.818Z,8.50
2022-08-05T08:18:01.969Z,6.97
2022-08-05T08:21:02.503Z,7.20
2022-08-05T08:24:00.969Z,6.70
2022-08-05T08:26:50.882Z,6.72
2022-08-05T08:30:05.466Z,6.93
2022-08-05T08:32:44.045Z,7.57
2022-08-05T08:35:35.107Z,8.48
2022-08-05T08:38:32.233Z,8.40
2022-08-05T08:41:26.222Z,9.55
2022-08-05T08:45:16.987Z,9.77
2022-08-05T08:48:06.276Z,11.23
2022-08-05T08:51:03.238Z,9.15
2022-08-05T08:53:49.922Z,9.98
2022-08-05T08:56:35.624Z,6.93
2022-08-05T08:59:33.932Z,6.78
2022-08-05T09:02:21.267Z,6.03
2022-08-05T09:05:17.301Z,4.53
2022-08-05T09:08:04.112Z,5.00
2022-08-05T09:10:51.347Z,4.00
2022-08-05T09:14:00.803Z,4.22
2022-08-05T09:16:48.570Z,4.10
2022-08-05T09:19:36.830Z,4.07
2022-08-05T09:23:05.524Z,4.18
2022-08-05T09:26:08.595Z,4.50
2022-08-05T09:29:01.349Z,3.95
2022-08-05T09:32:46.102Z,3.88
2022-08-05T09:35:26.577Z,4.32
2022-08-05T09:38:18.260Z,4.03
2022-08-05T09:41:12.754Z,4.03
2022-08-05T09:44:01.841Z,4.57
2022-08-05T09:46:53.532Z,5.30
2022-08-05T09:50:00.951Z,4.65
2022-08-05T09:52:48.401Z,5.03
2022-08-05T09:55:57.571Z,5.35
2022-08-05T09:59:03.195Z,5.32
2022-08-05T10:01:58.172Z,5.30
2022-08-05T10:04:45.496Z,4.43
2022-08-05T10:08:10.628Z,4.72
2022-08-05T10:10:57.545Z,4.32
2022-08-05T10:13:49.250Z,4.43
2022-08-05T10:16:41.981Z,4.25
2022-08-05T10:20:03.550Z,3.78
2022-08-05T10:22:48.740Z,3.42
2022-08-05T10:25:36.934Z,3.70
2022-08-05T10:28:30.404Z,3.53
2022-08-05T10:32:49.411Z,3.30
2022-08-05T10:34:25.639Z,3.17
2022-08-05T10:37:16.131Z,3.53
2022-08-05T10:40:17.900Z,3.13
2022-08-05T10:43:41.320Z,3.13
2022-08-05T10:46:56.594Z,3.00
2022-08-05T10:50:32.820Z,2.78
2022-08-05T10:53:38.231Z,2.67
2022-08-05T10:56:26.552Z,3.33
2022-08-05T11:00:02.639Z,2.75
2022-08-05T11:02:37.678Z,2.70
2022-08-05T11:05:29.010Z,2.40
2022-08-05T11:08:36.575Z,2.45
2022-08-05T11:11:44.443Z,3.53
2022-08-05T11:18:00.349Z,2.35
2022-08-05T11:20:51.466Z,2.92
2022-08-05T11:24:05.161Z,2.90
2022-08-05T11:27:51.440Z,3.00
2022-08-05T11:30:58.462Z,2.72
2022-08-05T11:33:47.912Z,2.92
2022-08-05T11:36:40.517Z,2.65
2022-08-05T11:40:03.418Z,2.33
2022-08-05T11:42:49.871Z,2.63
2022-08-05T11:46:30.870Z,2.55
2022-08-05T11:48:54.533Z,2.58
2022-08-05T11:51:49.428Z,2.80
2022-08-05T11:54:38.002Z,3.13
2022-08-05T11:58:08.679Z,2.70
2022-08-05T12:00:38.236Z,3.00
2022-08-05T12:03:31.625Z,2.67
2022-08-05T12:06:22.938Z,2.72
2022-08-05T12:09:08.523Z,3.13
2022-08-05T12:12:09.213Z,3.20
2022-08-05T12:14:56.333Z,2.80
2022-08-05T12:18:04.065Z,3.10
2022-08-05T12:20:48.769Z,2.85
2022-08-05T12:23:35.121Z,2.85
2022-08-05T12:26:43.815Z,2.90
2022-08-05T12:29:38.735Z,3.17
2022-08-05T12:32:24.875Z,2.58
2022-08-05T12:35:11.551Z,2.72
2022-08-05T12:38:02.372Z,3.30
2022-08-05T12:40:48.548Z,3.22
2022-08-05T12:43:48.267Z,2.60
2022-08-05T12:46:36.365Z,2.58
2022-08-05T12:49:25.605Z,2.70
2022-08-05T12:52:23.819Z,2.88
2022-08-05T12:55:22.075Z,2.58
2022-08-05T12:58:52.425Z,2.20
2022-08-05T13:02:03.683Z,2.10
2022-08-05T13:04:21.409Z,1.83
2022-08-05T13:07:16.101Z,1.92
2022-08-05T13:10:20.185Z,1.70
2022-08-05T13:13:06.702Z,2.00
2022-08-05T13:15:54.908Z,1.85
2022-08-05T13:18:55.048Z,2.30
2022-08-05T13:21:48.159Z,2.28
2022-08-05T13:24:57.396Z,2.00
2022-08-05T13:27:50.231Z,1.90
2022-08-05T13:30:38.928Z,1.95
2022-08-05T13:34:24.792Z,1.77
2022-08-05T13:36:30.929Z,1.85
2022-08-05T13:39:24.312Z,2.17
2022-08-05T13:42:23.444Z,1.70
2022-08-05T13:45:12.077Z,2.03
2022-08-05T13:48:08.618Z,1.80
2022-08-05T13:50:55.680Z,2.17
2022-08-05T13:53:48.152Z,2.05
2022-08-05T13:56:34.081Z,2.28
2022-08-05T13:59:26.840Z,1.90
2022-08-05T14:02:20.079Z,1.88
2022-08-05T14:05:12.160Z,1.77
2022-08-05T14:08:08.680Z,1.55
2022-08-05T14:11:20.528Z,1.52
2022-08-05T14:14:08.681Z,1.67
2022-08-05T14:16:55.360Z,1.60
2022-08-05T14:19:55.310Z,1.50
2022-08-05T14:22:49.966Z,1.80
2022-08-05T14:25:35.849Z,1.48
2022-08-05T14:28:31.211Z,1.40
2022-08-05T14:31:17.542Z,1.50
2022-08-05T14:34:23.700Z,1.60
2022-08-05T14:37:09.433Z,1.30
2022-08-05T14:39:59.120Z,1.30
2022-08-05T14:42:44.888Z,1.38
2022-08-05T14:45:31.165Z,1.23
2022-08-05T14:48:32.688Z,1.30
2022-08-05T14:51:21.557Z,1.33
2022-08-05T14:54:28.599Z,1.90
2022-08-05T14:57:14.485Z,1.48
2022-08-05T14:59:59.935Z,1.70
2022-08-05T15:02:45.362Z,1.50
2022-08-05T15:06:12.705Z,1.55
2022-08-05T15:09:01.357Z,1.80
2022-08-05T15:11:53.164Z,1.58
2022-08-05T15:14:48.068Z,1.80
2022-08-05T15:17:45.738Z,1.90
2022-08-05T15:20:33.895Z,1.48
2022-08-05T15:23:19.556Z,1.58
2022-08-05T15:26:05.064Z,1.33
2022-08-05T15:28:53.099Z,1.20
2022-08-05T15:31:39.288Z,1.05
2022-08-05T15:34:33.209Z,1.02
2022-08-05T15:38:08.601Z,0.95
2022-08-05T15:40:58.491Z,1.20
2022-08-05T15:43:32.184Z,1.15
2022-08-05T15:46:31.961Z,1.50
2022-08-05T15:49:26.307Z,1.15
2022-08-05T15:52:51.906Z,1.05
2022-08-05T15:56:03.111Z,1.05
2022-08-05T15:58:37.188Z,1.08
2022-08-05T16:01:29.555Z,1.10
2022-08-05T16:04:25.970Z,1.10
2022-08-05T16:07:11.866Z,1.38
2022-08-05T16:09:59.277Z,0.90
2022-08-05T16:12:45.031Z,0.95
2022-08-05T16:15:32.297Z,1.02
2022-08-05T16:18:19.272Z,0.90
2022-08-05T16:21:06.866Z,0.68
2022-08-05T16:23:53.708Z,1.23
2022-08-05T16:26:55.401Z,1.02
2022-08-05T16:29:45.458Z,0.80
2022-08-05T16:32:36.172Z,0.65
2022-08-05T16:35:27.825Z,1.70
2022-08-05T16:38:24.940Z,2.13
2022-08-05T16:42:11.955Z,1.77
2022-08-05T16:44:21.082Z,2.60
2022-08-05T16:47:24.727Z,2.22
2022-08-05T16:50:17.930Z,11.70
2022-08-05T16:53:12.340Z,27.73
2022-08-05T16:56:07.957Z,18.70
2022-08-05T16:58:53.924Z,48.20
2022-08-05T17:01:52.877Z,17.40
2022-08-05T17:04:41.313Z,15.10
2022-08-05T17:07:39.211Z,8.80
2022-08-05T17:10:32.628Z,16.58
2022-08-05T17:13:21.294Z,11.93
2022-08-05T17:16:33.319Z,11.55
2022-08-05T17:19:19.377Z,10.20
2022-08-05T17:22:05.428Z,10.93
2022-08-05T17:24:57.203Z,8.27
2022-08-05T17:27:44.140Z,7.93
2022-08-05T17:30:29.905Z,6.20
2022-08-05T17:33:15.690Z,4.55
2022-08-05T17:36:07.485Z,1.92
2022-08-05T17:38:55.911Z,1.17
2022-08-05T17:42:28.441Z,1.40
2022-08-05T17:44:50.321Z,2.00
2022-08-05T17:47:37.243Z,1.67
2022-08-05T17:50:28.749Z,3.25
2022-08-05T17:53:15.787Z,2.40
2022-08-05T17:56:04.260Z,2.53
2022-08-05T17:58:51.093Z,2.22
2022-08-05T18:01:42.707Z,1.83
2022-08-05T18:04:35.984Z,2.60
2022-08-05T18:07:41.293Z,1.50
2022-08-05T18:10:27.931Z,1.58
2022-08-05T18:13:17.989Z,1.75
2022-08-05T18:16:05.207Z,1.08
2022-08-05T18:18:51.092Z,1.00
2022-08-05T18:22:07.677Z,1.38
2022-08-05T18:24:43.472Z,1.02
2022-08-05T18:27:29.721Z,1.50
2022-08-05T18:30:18.154Z,1.42
2022-08-05T18:33:04.025Z,1.70
2022-08-05T18:36:03.691Z,1.35
2022-08-05T18:38:52.201Z,1.42
2022-08-05T18:41:56.854Z,1.17
2022-08-05T18:44:51.472Z,1.23
2022-08-05T18:47:42.481Z,1.75
2022-08-05T18:50:47.140Z,1.33
2022-08-05T18:53:34.738Z,1.15
2022-08-05T18:56:30.369Z,1.30
2022-08-05T18:59:43.059Z,1.20
2022-08-05T19:02:27.446Z,1.45
2022-08-05T19:06:11.364Z,1.30
2022-08-05T19:08:19.675Z,1.15
2022-08-05T19:11:07.529Z,0.93
2022-08-05T19:14:00.854Z,1.33
2022-08-05T19:16:48.424Z,1.00
2022-08-05T19:19:34.265Z,1.17
2022-08-05T19:22:27.584Z,1.10
2022-08-05T19:25:22.172Z,0.95
2022-08-05T19:28:15.194Z,1.10
2022-08-05T19:31:01.352Z,1.15
2022-08-05T19:33:56.696Z,0.90
2022-08-05T19:36:42.565Z,1.10
2022-08-05T19:39:30.041Z,1.20
2022-08-05T19:42:18.481Z,0.95
2022-08-05T19:45:21.141Z,1.00
2022-08-05T19:48:14.380Z,0.93
2022-08-05T19:51:00.216Z,0.93
2022-08-05T19:54:03.633Z,1.05
2022-08-05T19:56:51.751Z,1.23
2022-08-05T20:00:00.806Z,1.10
2022-08-05T20:02:44.901Z,1.02
2022-08-05T20:05:50.292Z,0.93
2022-08-05T20:08:37.424Z,1.10
2022-08-05T20:11:24.636Z,1.30
2022-08-05T20:14:12.756Z,1.10
2022-08-05T20:17:03.544Z,1.30
2022-08-05T20:19:57.667Z,1.00
2022-08-05T20:22:46.734Z,1.23
2022-08-05T20:25:33.743Z,1.10
2022-08-05T20:28:19.255Z,1.10
2022-08-05T20:31:05.309Z,1.02
2022-08-05T20:33:51.727Z,0.95
2022-08-05T20:36:38.973Z,1.00
2022-08-05T20:39:36.564Z,0.90
2022-08-05T20:42:22.937Z,0.80
2022-08-05T20:45:13.917Z,0.80
2022-08-05T20:47:59.959Z,1.10
2022-08-05T20:50:45.886Z,1.05
2022-08-05T20:53:36.441Z,0.90
2022-08-05T20:56:28.197Z,0.80
2022-08-05T20:59:26.595Z,1.00
2022-08-05T21:02:12.646Z,0.80
2022-08-05T21:05:05.564Z,1.00
2022-08-05T21:07:55.145Z,0.70
2022-08-05T21:10:49.160Z,1.15
2022-08-05T21:13:48.088Z,0.95
2022-08-05T21:16:41.594Z,1.30
2022-08-05T21:19:28.813Z,0.90
2022-08-05T21:22:33.347Z,1.00
2022-08-05T21:25:19.019Z,0.95
2022-08-05T21:28:04.772Z,0.95
2022-08-05T21:30:51.053Z,1.10
2022-08-05T21:33:40.096Z,0.90
2022-08-05T21:36:30.047Z,1.08
2022-08-05T21:39:26.529Z,1.15
2022-08-05T21:42:30.792Z,0.90
2022-08-05T21:45:24.728Z,1.00
2022-08-05T21:48:12.009Z,0.98
2022-08-05T21:50:59.533Z,0.90
2022-08-05T21:53:45.216Z,2.00
2022-08-05T21:56:53.376Z,1.15
2022-08-05T22:00:03.020Z,0.90
2022-08-05T22:02:46.680Z,1.00
2022-08-05T22:05:48.345Z,0.98
2022-08-05T22:08:35.449Z,0.90
2022-08-05T22:11:35.138Z,1.20
2022-08-05T22:14:35.723Z,1.20
2022-08-05T22:17:23.367Z,1.13
2022-08-05T22:20:14.792Z,0.85
2022-08-05T22:23:21.462Z,0.98
2022-08-05T22:26:26.476Z,0.70
2022-08-05T22:29:12.507Z,1.05
2022-08-05T22:32:02.813Z,0.90
2022-08-05T22:34:48.645Z,0.85
2022-08-05T22:37:58.533Z,0.98
2022-08-05T22:40:39.488Z,0.80
2022-08-05T22:43:36.810Z,0.82
2022-08-05T22:46:25.913Z,0.80
2022-08-05T22:50:16.343Z,1.30
2022-08-05T22:52:23.040Z,0.88
2022-08-05T22:55:21.406Z,0.90
2022-08-05T22:58:07.417Z,0.60
2022-08-05T23:00:57.440Z,0.90
2022-08-05T23:03:59.308Z,1.10
2022-08-05T23:06:45.511Z,1.23
2022-08-05T23:09:53.362Z,0.82
2022-08-05T23:12:40.712Z,0.98
2022-08-05T23:15:35.172Z,0.70
2022-08-05T23:18:20.920Z,0.80
2022-08-05T23:21:10.240Z,0.90
2022-08-05T23:23:56.037Z,1.00
2022-08-05T23:26:41.684Z,0.90
2022-08-05T23:29:30.128Z,1.02
2022-08-05T23:32:23.060Z,0.90
2022-08-05T23:35:09.585Z,0.80
2022-08-05T23:37:55.223Z,0.90
2022-08-05T23:40:42.236Z,0.90
2022-08-05T23:44:04.754Z,1.02
2022-08-05T23:46:40.934Z,0.77
2022-08-05T23:49:36.086Z,1.08
2022-08-05T23:52:29.316Z,0.90
2022-08-05T23:55:16.369Z,0.90
2022-08-05T23:58:03.046Z,0.80
